Hlavní strana
METAR-TAF:

METAR-TAF

Letiště :

Landsberg, Německo

zeměpisná šířka: 48-04N, zeměpisná délka: 010-54E, výška: 623 m

Aktuální stav počasí

Zpráva byla vytvořena před 21 hodinami a 11 minutami, v 14:20 UTC
Severní vítr 3 kt
Teplota -2°C
Vlhkost vzduchu 74%
Tlak 1012 hPa

METAR: ETSA 201420Z AUTO 35003KT //// // ////// M02/M06 Q1012 ///

Čas: 12:31 (11:31 UTC)


TAF: chybějící

Stav a předpovědi počasí z více než 4 000 letišť (zprávy METAR a TAF).

Červené a žluté tečky na mapě představují dostupné meteorologické stanice.

Když kurzor umístíte na tečku, zobrazí se název stanice.

Pak kliknutím zobrazíte stav a předpověď počasí.

Chcete-li změnit mapu, kliknutím na zelené tlačítko se znaménkem +mapu přiblížíte, kliknutím na zelené tlačítko se znaménkem – mapu oddálíte a kliknutím na zelené šipky přejdete na sousední mapy.


METAR-TAF: